sensor_id;sensor_type;location;lat;lon;timestamp;P1;durP1;ratioP1;P2;durP2;ratioP2
12774;SDS011;6451;42.630;23.382;2023-06-24T00:00:35;13.07;;;11.77;;
12774;SDS011;6451;42.630;23.382;2023-06-24T00:03:03;12.70;;;11.52;;
12774;SDS011;6451;42.630;23.382;2023-06-24T00:05:33;11.95;;;10.85;;
12774;SDS011;6451;42.630;23.382;2023-06-24T00:08:00;12.52;;;11.32;;
12774;SDS011;6451;42.630;23.382;2023-06-24T00:10:27;13.55;;;11.57;;
12774;SDS011;6451;42.630;23.382;2023-06-24T00:15:26;12.80;;;11.57;;
12774;SDS011;6451;42.630;23.382;2023-06-24T00:17:54;13.23;;;11.90;;
12774;SDS011;6451;42.630;23.382;2023-06-24T00:20:31;13.45;;;12.15;;
12774;SDS011;6451;42.630;23.382;2023-06-24T00:22:58;13.32;;;12.05;;
12774;SDS011;6451;42.630;23.382;2023-06-24T00:25:25;14.32;;;13.00;;
12774;SDS011;6451;42.630;23.382;2023-06-24T00:27:52;13.23;;;12.07;;
12774;SDS011;6451;42.630;23.382;2023-06-24T00:30:19;13.85;;;12.40;;
12774;SDS011;6451;42.630;23.382;2023-06-24T00:32:46;14.48;;;13.02;;
12774;SDS011;6451;42.630;23.382;2023-06-24T00:35:14;14.00;;;12.55;;
12774;SDS011;6451;42.630;23.382;2023-06-24T00:37:41;14.07;;;12.73;;
12774;SDS011;6451;42.630;23.382;2023-06-24T00:40:10;13.50;;;12.30;;
12774;SDS011;6451;42.630;23.382;2023-06-24T00:42:40;13.27;;;12.07;;
12774;SDS011;6451;42.630;23.382;2023-06-24T00:45:08;14.00;;;12.70;;
12774;SDS011;6451;42.630;23.382;2023-06-24T00:47:35;13.20;;;11.93;;
12774;SDS011;6451;42.630;23.382;2023-06-24T00:50:04;14.10;;;12.70;;
12774;SDS011;6451;42.630;23.382;2023-06-24T00:52:33;14.18;;;11.80;;
12774;SDS011;6451;42.630;23.382;2023-06-24T00:55:02;14.50;;;12.85;;
12774;SDS011;6451;42.630;23.382;2023-06-24T00:57:29;16.52;;;13.20;;
12774;SDS011;6451;42.630;23.382;2023-06-24T00:59:56;14.02;;;12.73;;
12774;SDS011;6451;42.630;23.382;2023-06-24T01:02:25;14.23;;;12.77;;
12774;SDS011;6451;42.630;23.382;2023-06-24T01:04:53;15.00;;;12.70;;
12774;SDS011;6451;42.630;23.382;2023-06-24T01:07:20;15.05;;;13.63;;
12774;SDS011;6451;42.630;23.382;2023-06-24T01:09:50;14.40;;;12.93;;
12774;SDS011;6451;42.630;23.382;2023-06-24T01:12:17;14.57;;;13.27;;
12774;SDS011;6451;42.630;23.382;2023-06-24T01:14:44;14.20;;;12.93;;
12774;SDS011;6451;42.630;23.382;2023-06-24T01:17:12;13.80;;;12.50;;
12774;SDS011;6451;42.630;23.382;2023-06-24T01:19:44;14.10;;;12.75;;
12774;SDS011;6451;42.630;23.382;2023-06-24T01:25:38;14.95;;;13.43;;
12774;SDS011;6451;42.630;23.382;2023-06-24T01:28:30;15.00;;;13.60;;
12774;SDS011;6451;42.630;23.382;2023-06-24T01:31:26;14.40;;;13.10;;
12774;SDS011;6451;42.630;23.382;2023-06-24T01:34:00;14.90;;;13.27;;
12774;SDS011;6451;42.630;23.382;2023-06-24T01:36:34;14.73;;;13.23;;
12774;SDS011;6451;42.630;23.382;2023-06-24T01:39:06;15.13;;;13.75;;
12774;SDS011;6451;42.630;23.382;2023-06-24T01:41:36;15.32;;;13.68;;
12774;SDS011;6451;42.630;23.382;2023-06-24T01:44:09;15.55;;;13.68;;
12774;SDS011;6451;42.630;23.382;2023-06-24T01:46:39;15.32;;;13.93;;
12774;SDS011;6451;42.630;23.382;2023-06-24T01:49:09;14.38;;;12.88;;
12774;SDS011;6451;42.630;23.382;2023-06-24T01:51:39;14.82;;;13.43;;
12774;SDS011;6451;42.630;23.382;2023-06-24T01:54:10;15.07;;;13.48;;
12774;SDS011;6451;42.630;23.382;2023-06-24T01:56:39;14.00;;;12.70;;
12774;SDS011;6451;42.630;23.382;2023-06-24T01:59:09;13.90;;;12.50;;
12774;SDS011;6451;42.630;23.382;2023-06-24T02:01:37;13.75;;;12.45;;
12774;SDS011;6451;42.630;23.382;2023-06-24T02:04:06;14.50;;;13.10;;
12774;SDS011;6451;42.630;23.382;2023-06-24T02:06:36;14.95;;;13.48;;
12774;SDS011;6451;42.630;23.382;2023-06-24T02:09:04;13.98;;;12.68;;
12774;SDS011;6451;42.630;23.382;2023-06-24T02:11:33;14.32;;;12.82;;
12774;SDS011;6451;42.630;23.382;2023-06-24T02:14:03;14.02;;;12.63;;
12774;SDS011;6451;42.630;23.382;2023-06-24T02:16:31;16.08;;;13.77;;
12774;SDS011;6451;42.630;23.382;2023-06-24T02:19:01;15.85;;;12.27;;
12774;SDS011;6451;42.630;23.382;2023-06-24T02:21:29;14.05;;;12.70;;
12774;SDS011;6451;42.630;23.382;2023-06-24T02:23:57;13.73;;;12.43;;
12774;SDS011;6451;42.630;23.382;2023-06-24T02:26:25;13.73;;;12.32;;
12774;SDS011;6451;42.630;23.382;2023-06-24T02:28:53;13.00;;;11.80;;
12774;SDS011;6451;42.630;23.382;2023-06-24T02:31:21;13.13;;;11.95;;
12774;SDS011;6451;42.630;23.382;2023-06-24T02:33:50;13.50;;;12.20;;
12774;SDS011;6451;42.630;23.382;2023-06-24T02:36:18;13.55;;;12.35;;
12774;SDS011;6451;42.630;23.382;2023-06-24T02:38:45;14.38;;;13.02;;
12774;SDS011;6451;42.630;23.382;2023-06-24T02:41:13;14.88;;;13.48;;
12774;SDS011;6451;42.630;23.382;2023-06-24T02:43:40;15.95;;;14.40;;
12774;SDS011;6451;42.630;23.382;2023-06-24T02:46:07;16.02;;;14.32;;
12774;SDS011;6451;42.630;23.382;2023-06-24T02:48:35;16.15;;;14.23;;
12774;SDS011;6451;42.630;23.382;2023-06-24T02:51:05;17.20;;;14.25;;
12774;SDS011;6451;42.630;23.382;2023-06-24T02:53:36;16.95;;;13.82;;
12774;SDS011;6451;42.630;23.382;2023-06-24T02:56:04;15.60;;;14.00;;
12774;SDS011;6451;42.630;23.382;2023-06-24T02:58:34;15.98;;;14.38;;
12774;SDS011;6451;42.630;23.382;2023-06-24T03:01:03;15.73;;;14.05;;
12774;SDS011;6451;42.630;23.382;2023-06-24T03:03:32;16.77;;;14.10;;
12774;SDS011;6451;42.630;23.382;2023-06-24T03:05:59;15.85;;;14.20;;
12774;SDS011;6451;42.630;23.382;2023-06-24T03:08:27;16.80;;;14.85;;
12774;SDS011;6451;42.630;23.382;2023-06-24T03:10:56;17.80;;;14.35;;
12774;SDS011;6451;42.630;23.382;2023-06-24T03:13:24;15.65;;;13.98;;
12774;SDS011;6451;42.630;23.382;2023-06-24T03:15:51;17.13;;;14.30;;
12774;SDS011;6451;42.630;23.382;2023-06-24T03:18:18;15.65;;;14.18;;
12774;SDS011;6451;42.630;23.382;2023-06-24T03:20:46;18.70;;;14.50;;
12774;SDS011;6451;42.630;23.382;2023-06-24T03:23:14;15.68;;;13.65;;
12774;SDS011;6451;42.630;23.382;2023-06-24T03:25:41;15.55;;;13.93;;
12774;SDS011;6451;42.630;23.382;2023-06-24T03:28:09;15.00;;;13.43;;
12774;SDS011;6451;42.630;23.382;2023-06-24T03:30:36;16.40;;;13.60;;
12774;SDS011;6451;42.630;23.382;2023-06-24T03:33:03;15.07;;;13.40;;
12774;SDS011;6451;42.630;23.382;2023-06-24T03:35:31;14.25;;;12.75;;
12774;SDS011;6451;42.630;23.382;2023-06-24T03:37:58;13.40;;;12.02;;
12774;SDS011;6451;42.630;23.382;2023-06-24T03:40:25;13.52;;;12.23;;
12774;SDS011;6451;42.630;23.382;2023-06-24T03:42:52;12.40;;;11.32;;
12774;SDS011;6451;42.630;23.382;2023-06-24T03:45:20;13.32;;;12.13;;
12774;SDS011;6451;42.630;23.382;2023-06-24T03:47:47;13.18;;;11.98;;
12774;SDS011;6451;42.630;23.382;2023-06-24T03:50:14;12.95;;;11.60;;
12774;SDS011;6451;42.630;23.382;2023-06-24T03:52:41;13.18;;;11.43;;
12774;SDS011;6451;42.630;23.382;2023-06-24T03:55:09;14.02;;;11.77;;
12774;SDS011;6451;42.630;23.382;2023-06-24T03:57:36;12.45;;;11.15;;
12774;SDS011;6451;42.630;23.382;2023-06-24T04:00:04;12.20;;;11.10;;
12774;SDS011;6451;42.630;23.382;2023-06-24T04:02:40;12.88;;;10.93;;
12774;SDS011;6451;42.630;23.382;2023-06-24T04:05:08;12.35;;;11.25;;
12774;SDS011;6451;42.630;23.382;2023-06-24T04:07:36;11.48;;;10.48;;
12774;SDS011;6451;42.630;23.382;2023-06-24T04:10:05;11.82;;;10.73;;
12774;SDS011;6451;42.630;23.382;2023-06-24T04:12:33;12.05;;;10.95;;
12774;SDS011;6451;42.630;23.382;2023-06-24T04:15:00;12.13;;;11.00;;
12774;SDS011;6451;42.630;23.382;2023-06-24T04:17:28;11.55;;;10.40;;
12774;SDS011;6451;42.630;23.382;2023-06-24T04:19:57;11.77;;;10.57;;
12774;SDS011;6451;42.630;23.382;2023-06-24T04:22:24;13.13;;;10.18;;
12774;SDS011;6451;42.630;23.382;2023-06-24T04:24:51;11.90;;;10.77;;
12774;SDS011;6451;42.630;23.382;2023-06-24T04:27:19;11.65;;;10.63;;
12774;SDS011;6451;42.630;23.382;2023-06-24T04:29:46;12.60;;;11.38;;
12774;SDS011;6451;42.630;23.382;2023-06-24T04:32:13;12.07;;;10.88;;
12774;SDS011;6451;42.630;23.382;2023-06-24T04:34:40;12.68;;;11.50;;
12774;SDS011;6451;42.630;23.382;2023-06-24T04:37:08;12.52;;;11.32;;
12774;SDS011;6451;42.630;23.382;2023-06-24T04:39:35;12.50;;;11.20;;
12774;SDS011;6451;42.630;23.382;2023-06-24T04:42:02;11.82;;;10.63;;
12774;SDS011;6451;42.630;23.382;2023-06-24T04:44:29;12.70;;;11.07;;
12774;SDS011;6451;42.630;23.382;2023-06-24T04:46:56;12.07;;;10.98;;
12774;SDS011;6451;42.630;23.382;2023-06-24T04:49:22;12.25;;;11.02;;
12774;SDS011;6451;42.630;23.382;2023-06-24T04:51:49;12.73;;;11.50;;
12774;SDS011;6451;42.630;23.382;2023-06-24T04:54:17;11.95;;;10.75;;
12774;SDS011;6451;42.630;23.382;2023-06-24T04:56:45;11.70;;;10.70;;
12774;SDS011;6451;42.630;23.382;2023-06-24T04:59:15;11.30;;;10.40;;
12774;SDS011;6451;42.630;23.382;2023-06-24T05:01:41;11.65;;;10.55;;
12774;SDS011;6451;42.630;23.382;2023-06-24T05:04:08;12.00;;;10.27;;
12774;SDS011;6451;42.630;23.382;2023-06-24T05:06:36;12.10;;;11.00;;
12774;SDS011;6451;42.630;23.382;2023-06-24T05:09:03;11.25;;;10.20;;
12774;SDS011;6451;42.630;23.382;2023-06-24T05:11:31;11.52;;;10.50;;
12774;SDS011;6451;42.630;23.382;2023-06-24T05:13:58;12.00;;;10.90;;
12774;SDS011;6451;42.630;23.382;2023-06-24T05:16:25;12.30;;;11.00;;
12774;SDS011;6451;42.630;23.382;2023-06-24T05:18:52;11.68;;;10.57;;
12774;SDS011;6451;42.630;23.382;2023-06-24T05:21:19;12.45;;;10.82;;
12774;SDS011;6451;42.630;23.382;2023-06-24T05:23:46;11.43;;;10.30;;
12774;SDS011;6451;42.630;23.382;2023-06-24T05:26:13;13.07;;;11.75;;
12774;SDS011;6451;42.630;23.382;2023-06-24T05:28:44;13.77;;;12.45;;
12774;SDS011;6451;42.630;23.382;2023-06-24T05:31:11;13.57;;;12.23;;
12774;SDS011;6451;42.630;23.382;2023-06-24T05:33:37;14.00;;;12.40;;
12774;SDS011;6451;42.630;23.382;2023-06-24T05:36:05;14.25;;;12.43;;
12774;SDS011;6451;42.630;23.382;2023-06-24T05:38:32;13.88;;;12.10;;
12774;SDS011;6451;42.630;23.382;2023-06-24T05:40:59;14.23;;;12.02;;
12774;SDS011;6451;42.630;23.382;2023-06-24T05:43:28;13.35;;;12.10;;
12774;SDS011;6451;42.630;23.382;2023-06-24T05:45:57;13.25;;;11.82;;
12774;SDS011;6451;42.630;23.382;2023-06-24T05:48:23;14.35;;;12.55;;
12774;SDS011;6451;42.630;23.382;2023-06-24T05:50:50;13.70;;;12.48;;
12774;SDS011;6451;42.630;23.382;2023-06-24T05:53:17;13.70;;;12.20;;
12774;SDS011;6451;42.630;23.382;2023-06-24T05:55:44;12.73;;;11.63;;
12774;SDS011;6451;42.630;23.382;2023-06-24T05:58:12;13.23;;;12.02;;
12774;SDS011;6451;42.630;23.382;2023-06-24T06:00:39;13.07;;;12.00;;
12774;SDS011;6451;42.630;23.382;2023-06-24T06:03:07;15.73;;;14.05;;
12774;SDS011;6451;42.630;23.382;2023-06-24T06:05:35;14.95;;;13.45;;
12774;SDS011;6451;42.630;23.382;2023-06-24T06:08:05;16.17;;;14.40;;
12774;SDS011;6451;42.630;23.382;2023-06-24T06:10:32;15.35;;;13.80;;
12774;SDS011;6451;42.630;23.382;2023-06-24T06:12:59;16.50;;;14.50;;
12774;SDS011;6451;42.630;23.382;2023-06-24T06:15:26;14.48;;;13.10;;
12774;SDS011;6451;42.630;23.382;2023-06-24T06:17:53;14.27;;;12.85;;
12774;SDS011;6451;42.630;23.382;2023-06-24T06:20:22;14.07;;;12.77;;
12774;SDS011;6451;42.630;23.382;2023-06-24T06:22:49;13.85;;;12.45;;
12774;SDS011;6451;42.630;23.382;2023-06-24T06:25:16;13.95;;;12.55;;
12774;SDS011;6451;42.630;23.382;2023-06-24T06:27:43;14.80;;;13.18;;
12774;SDS011;6451;42.630;23.382;2023-06-24T06:30:10;14.38;;;12.98;;
12774;SDS011;6451;42.630;23.382;2023-06-24T06:32:38;14.63;;;13.23;;
12774;SDS011;6451;42.630;23.382;2023-06-24T06:37:35;15.35;;;13.02;;
12774;SDS011;6451;42.630;23.382;2023-06-24T06:40:02;15.20;;;13.73;;
12774;SDS011;6451;42.630;23.382;2023-06-24T06:42:29;15.40;;;14.07;;
12774;SDS011;6451;42.630;23.382;2023-06-24T06:44:56;15.30;;;13.77;;
12774;SDS011;6451;42.630;23.382;2023-06-24T06:47:23;15.73;;;14.02;;
12774;SDS011;6451;42.630;23.382;2023-06-24T06:49:50;14.57;;;13.18;;
12774;SDS011;6451;42.630;23.382;2023-06-24T06:52:17;15.82;;;14.20;;
12774;SDS011;6451;42.630;23.382;2023-06-24T06:54:45;14.98;;;13.48;;
12774;SDS011;6451;42.630;23.382;2023-06-24T06:57:12;14.15;;;12.85;;
12774;SDS011;6451;42.630;23.382;2023-06-24T06:59:39;15.85;;;13.70;;
12774;SDS011;6451;42.630;23.382;2023-06-24T07:02:06;14.57;;;13.20;;
12774;SDS011;6451;42.630;23.382;2023-06-24T07:04:33;14.43;;;13.10;;
12774;SDS011;6451;42.630;23.382;2023-06-24T07:07:00;13.77;;;12.48;;
12774;SDS011;6451;42.630;23.382;2023-06-24T07:09:27;14.07;;;12.80;;
12774;SDS011;6451;42.630;23.382;2023-06-24T07:11:56;13.18;;;12.10;;
12774;SDS011;6451;42.630;23.382;2023-06-24T07:14:23;13.73;;;12.48;;
12774;SDS011;6451;42.630;23.382;2023-06-24T07:16:50;13.50;;;12.30;;
12774;SDS011;6451;42.630;23.382;2023-06-24T07:19:17;14.15;;;12.80;;
12774;SDS011;6451;42.630;23.382;2023-06-24T07:21:44;13.05;;;11.80;;
12774;SDS011;6451;42.630;23.382;2023-06-24T07:24:12;14.15;;;12.00;;
12774;SDS011;6451;42.630;23.382;2023-06-24T07:26:39;13.85;;;12.57;;
12774;SDS011;6451;42.630;23.382;2023-06-24T07:29:07;13.07;;;11.70;;
12774;SDS011;6451;42.630;23.382;2023-06-24T07:31:34;13.30;;;12.02;;
12774;SDS011;6451;42.630;23.382;2023-06-24T07:34:01;13.95;;;12.73;;
12774;SDS011;6451;42.630;23.382;2023-06-24T07:36:29;12.57;;;11.50;;
12774;SDS011;6451;42.630;23.382;2023-06-24T07:38:56;12.90;;;11.60;;
12774;SDS011;6451;42.630;23.382;2023-06-24T07:41:23;13.40;;;12.00;;
12774;SDS011;6451;42.630;23.382;2023-06-24T07:43:52;12.52;;;11.32;;
12774;SDS011;6451;42.630;23.382;2023-06-24T07:46:20;16.83;;;13.73;;
12774;SDS011;6451;42.630;23.382;2023-06-24T07:48:48;12.93;;;11.73;;
12774;SDS011;6451;42.630;23.382;2023-06-24T07:51:16;13.63;;;11.95;;
12774;SDS011;6451;42.630;23.382;2023-06-24T07:53:44;13.05;;;11.57;;
12774;SDS011;6451;42.630;23.382;2023-06-24T07:56:11;15.38;;;11.85;;
12774;SDS011;6451;42.630;23.382;2023-06-24T07:58:38;12.45;;;11.27;;
12774;SDS011;6451;42.630;23.382;2023-06-24T08:01:05;13.20;;;12.00;;
12774;SDS011;6451;42.630;23.382;2023-06-24T08:03:33;12.90;;;11.60;;
12774;SDS011;6451;42.630;23.382;2023-06-24T08:06:03;13.07;;;11.90;;
12774;SDS011;6451;42.630;23.382;2023-06-24T08:08:30;13.07;;;11.73;;
12774;SDS011;6451;42.630;23.382;2023-06-24T08:10:57;13.10;;;11.82;;
12774;SDS011;6451;42.630;23.382;2023-06-24T08:13:24;13.05;;;11.23;;
12774;SDS011;6451;42.630;23.382;2023-06-24T08:15:51;12.73;;;11.50;;
12774;SDS011;6451;42.630;23.382;2023-06-24T08:18:18;12.30;;;10.90;;
12774;SDS011;6451;42.630;23.382;2023-06-24T08:20:46;12.82;;;11.60;;
12774;SDS011;6451;42.630;23.382;2023-06-24T08:23:13;12.77;;;11.48;;
12774;SDS011;6451;42.630;23.382;2023-06-24T08:25:42;13.70;;;11.10;;
12774;SDS011;6451;42.630;23.382;2023-06-24T08:28:09;12.75;;;11.50;;
12774;SDS011;6451;42.630;23.382;2023-06-24T08:30:37;12.80;;;11.63;;
12774;SDS011;6451;42.630;23.382;2023-06-24T08:33:05;12.82;;;11.63;;
12774;SDS011;6451;42.630;23.382;2023-06-24T08:35:32;13.27;;;11.77;;
12774;SDS011;6451;42.630;23.382;2023-06-24T08:38:00;13.15;;;11.88;;
12774;SDS011;6451;42.630;23.382;2023-06-24T08:40:27;12.98;;;11.07;;
12774;SDS011;6451;42.630;23.382;2023-06-24T08:42:55;12.60;;;11.35;;
12774;SDS011;6451;42.630;23.382;2023-06-24T08:45:23;18.92;;;17.33;;
12774;SDS011;6451;42.630;23.382;2023-06-24T08:47:50;12.40;;;11.35;;
12774;SDS011;6451;42.630;23.382;2023-06-24T08:50:21;12.63;;;11.43;;
12774;SDS011;6451;42.630;23.382;2023-06-24T08:52:53;12.38;;;11.20;;
12774;SDS011;6451;42.630;23.382;2023-06-24T08:55:22;12.75;;;11.48;;
12774;SDS011;6451;42.630;23.382;2023-06-24T08:57:53;11.93;;;10.93;;
12774;SDS011;6451;42.630;23.382;2023-06-24T09:00:20;11.82;;;10.45;;
12774;SDS011;6451;42.630;23.382;2023-06-24T09:02:47;11.30;;;10.30;;
12774;SDS011;6451;42.630;23.382;2023-06-24T09:05:15;11.27;;;10.38;;
12774;SDS011;6451;42.630;23.382;2023-06-24T09:07:42;12.98;;;11.10;;
12774;SDS011;6451;42.630;23.382;2023-06-24T09:10:09;11.15;;;10.13;;
12774;SDS011;6451;42.630;23.382;2023-06-24T09:12:39;12.07;;;10.77;;
12774;SDS011;6451;42.630;23.382;2023-06-24T09:15:06;11.93;;;10.70;;
12774;SDS011;6451;42.630;23.382;2023-06-24T09:17:43;11.73;;;10.73;;
12774;SDS011;6451;42.630;23.382;2023-06-24T09:20:11;11.93;;;10.93;;
12774;SDS011;6451;42.630;23.382;2023-06-24T09:22:39;16.67;;;12.98;;
12774;SDS011;6451;42.630;23.382;2023-06-24T09:25:07;12.65;;;11.40;;
12774;SDS011;6451;42.630;23.382;2023-06-24T09:27:34;12.52;;;11.25;;
12774;SDS011;6451;42.630;23.382;2023-06-24T09:30:02;12.15;;;10.90;;
12774;SDS011;6451;42.630;23.382;2023-06-24T09:32:45;11.65;;;10.52;;
12774;SDS011;6451;42.630;23.382;2023-06-24T09:35:12;11.70;;;10.68;;
12774;SDS011;6451;42.630;23.382;2023-06-24T09:37:40;12.80;;;11.50;;
12774;SDS011;6451;42.630;23.382;2023-06-24T09:40:07;12.57;;;11.23;;
12774;SDS011;6451;42.630;23.382;2023-06-24T09:42:35;12.82;;;11.00;;
12774;SDS011;6451;42.630;23.382;2023-06-24T09:45:07;11.57;;;10.57;;
12774;SDS011;6451;42.630;23.382;2023-06-24T09:47:35;14.27;;;10.75;;
12774;SDS011;6451;42.630;23.382;2023-06-24T09:50:02;12.93;;;10.50;;
12774;SDS011;6451;42.630;23.382;2023-06-24T09:52:29;11.52;;;10.27;;
12774;SDS011;6451;42.630;23.382;2023-06-24T09:54:59;11.35;;;10.27;;
12774;SDS011;6451;42.630;23.382;2023-06-24T09:57:29;12.05;;;10.85;;
12774;SDS011;6451;42.630;23.382;2023-06-24T09:59:59;11.07;;;10.07;;
12774;SDS011;6451;42.630;23.382;2023-06-24T10:02:28;11.93;;;10.70;;
12774;SDS011;6451;42.630;23.382;2023-06-24T10:04:57;11.85;;;10.00;;
12774;SDS011;6451;42.630;23.382;2023-06-24T10:07:27;12.35;;;10.52;;
12774;SDS011;6451;42.630;23.382;2023-06-24T10:09:55;11.80;;;10.73;;
12774;SDS011;6451;42.630;23.382;2023-06-24T10:12:22;11.70;;;10.60;;
12774;SDS011;6451;42.630;23.382;2023-06-24T10:14:51;11.32;;;10.20;;
12774;SDS011;6451;42.630;23.382;2023-06-24T10:17:19;13.73;;;10.10;;
12774;SDS011;6451;42.630;23.382;2023-06-24T10:19:47;10.70;;;9.75;;
12774;SDS011;6451;42.630;23.382;2023-06-24T10:22:14;11.15;;;10.20;;
12774;SDS011;6451;42.630;23.382;2023-06-24T10:24:41;10.23;;;9.35;;
12774;SDS011;6451;42.630;23.382;2023-06-24T10:27:13;10.57;;;8.77;;
12774;SDS011;6451;42.630;23.382;2023-06-24T10:29:44;9.68;;;8.88;;
12774;SDS011;6451;42.630;23.382;2023-06-24T10:32:12;10.55;;;9.55;;
12774;SDS011;6451;42.630;23.382;2023-06-24T10:34:40;10.57;;;9.50;;
12774;SDS011;6451;42.630;23.382;2023-06-24T10:37:10;10.07;;;9.02;;
12774;SDS011;6451;42.630;23.382;2023-06-24T10:39:39;9.90;;;9.07;;
12774;SDS011;6451;42.630;23.382;2023-06-24T10:42:29;9.90;;;8.48;;
12774;SDS011;6451;42.630;23.382;2023-06-24T10:45:13;9.60;;;8.60;;
12774;SDS011;6451;42.630;23.382;2023-06-24T10:47:44;9.82;;;8.82;;
12774;SDS011;6451;42.630;23.382;2023-06-24T10:50:13;9.35;;;8.48;;
12774;SDS011;6451;42.630;23.382;2023-06-24T10:52:43;9.95;;;8.80;;
12774;SDS011;6451;42.630;23.382;2023-06-24T10:55:11;9.43;;;8.43;;
12774;SDS011;6451;42.630;23.382;2023-06-24T10:57:40;9.00;;;8.10;;
12774;SDS011;6451;42.630;23.382;2023-06-24T11:00:07;9.82;;;8.20;;
12774;SDS011;6451;42.630;23.382;2023-06-24T11:02:35;9.35;;;8.50;;
12774;SDS011;6451;42.630;23.382;2023-06-24T11:05:03;9.32;;;8.52;;
12774;SDS011;6451;42.630;23.382;2023-06-24T11:07:32;9.27;;;8.30;;
12774;SDS011;6451;42.630;23.382;2023-06-24T11:10:02;9.18;;;8.30;;
12774;SDS011;6451;42.630;23.382;2023-06-24T11:12:31;11.50;;;8.73;;
12774;SDS011;6451;42.630;23.382;2023-06-24T11:15:00;9.10;;;8.27;;
12774;SDS011;6451;42.630;23.382;2023-06-24T11:17:28;8.57;;;7.78;;
12774;SDS011;6451;42.630;23.382;2023-06-24T11:19:56;10.10;;;9.10;;
12774;SDS011;6451;42.630;23.382;2023-06-24T11:22:24;8.77;;;7.97;;
12774;SDS011;6451;42.630;23.382;2023-06-24T11:24:52;11.52;;;10.30;;
12774;SDS011;6451;42.630;23.382;2023-06-24T11:27:25;8.90;;;7.97;;
12774;SDS011;6451;42.630;23.382;2023-06-24T11:29:54;8.82;;;7.68;;
12774;SDS011;6451;42.630;23.382;2023-06-24T11:32:23;8.57;;;7.78;;
12774;SDS011;6451;42.630;23.382;2023-06-24T11:34:50;8.68;;;7.88;;
12774;SDS011;6451;42.630;23.382;2023-06-24T11:37:18;9.07;;;8.27;;
12774;SDS011;6451;42.630;23.382;2023-06-24T11:39:59;9.85;;;8.80;;
12774;SDS011;6451;42.630;23.382;2023-06-24T11:42:32;9.10;;;8.30;;
12774;SDS011;6451;42.630;23.382;2023-06-24T11:45:01;8.25;;;7.55;;
12774;SDS011;6451;42.630;23.382;2023-06-24T11:47:33;8.23;;;7.43;;
12774;SDS011;6451;42.630;23.382;2023-06-24T11:50:03;9.27;;;7.90;;
12774;SDS011;6451;42.630;23.382;2023-06-24T11:52:40;8.63;;;7.93;;
12774;SDS011;6451;42.630;23.382;2023-06-24T11:55:12;8.35;;;7.55;;
12774;SDS011;6451;42.630;23.382;2023-06-24T11:57:54;8.40;;;7.63;;
12774;SDS011;6451;42.630;23.382;2023-06-24T12:00:23;10.52;;;7.25;;
12774;SDS011;6451;42.630;23.382;2023-06-24T12:02:52;8.23;;;7.32;;
12774;SDS011;6451;42.630;23.382;2023-06-24T12:05:20;8.68;;;7.78;;
12774;SDS011;6451;42.630;23.382;2023-06-24T12:07:53;8.38;;;7.55;;
12774;SDS011;6451;42.630;23.382;2023-06-24T12:10:24;10.30;;;8.10;;
12774;SDS011;6451;42.630;23.382;2023-06-24T12:12:51;8.73;;;7.93;;
12774;SDS011;6451;42.630;23.382;2023-06-24T12:15:19;8.85;;;8.05;;
12774;SDS011;6451;42.630;23.382;2023-06-24T12:17:46;8.02;;;7.32;;
12774;SDS011;6451;42.630;23.382;2023-06-24T12:20:13;8.73;;;7.93;;
12774;SDS011;6451;42.630;23.382;2023-06-24T12:22:40;8.82;;;7.85;;
12774;SDS011;6451;42.630;23.382;2023-06-24T12:25:08;9.27;;;8.27;;
12774;SDS011;6451;42.630;23.382;2023-06-24T12:27:36;9.27;;;8.48;;
12774;SDS011;6451;42.630;23.382;2023-06-24T12:30:05;8.57;;;7.88;;
12774;SDS011;6451;42.630;23.382;2023-06-24T12:32:34;10.23;;;8.05;;
12774;SDS011;6451;42.630;23.382;2023-06-24T12:35:02;9.43;;;7.55;;
12774;SDS011;6451;42.630;23.382;2023-06-24T12:37:31;8.15;;;7.35;;
12774;SDS011;6451;42.630;23.382;2023-06-24T12:39:59;9.45;;;7.88;;
12774;SDS011;6451;42.630;23.382;2023-06-24T12:42:26;8.75;;;7.80;;
12774;SDS011;6451;42.630;23.382;2023-06-24T12:44:53;8.60;;;7.80;;
12774;SDS011;6451;42.630;23.382;2023-06-24T12:47:20;9.85;;;8.10;;
12774;SDS011;6451;42.630;23.382;2023-06-24T12:49:49;8.85;;;7.75;;
12774;SDS011;6451;42.630;23.382;2023-06-24T12:52:16;8.05;;;7.35;;
12774;SDS011;6451;42.630;23.382;2023-06-24T12:54:43;11.32;;;7.00;;
12774;SDS011;6451;42.630;23.382;2023-06-24T12:57:11;7.40;;;6.70;;
12774;SDS011;6451;42.630;23.382;2023-06-24T12:59:38;7.82;;;7.13;;
12774;SDS011;6451;42.630;23.382;2023-06-24T13:02:05;8.98;;;7.40;;
12774;SDS011;6451;42.630;23.382;2023-06-24T13:04:32;8.43;;;7.38;;
12774;SDS011;6451;42.630;23.382;2023-06-24T13:07:02;9.98;;;7.30;;
12774;SDS011;6451;42.630;23.382;2023-06-24T13:09:31;8.77;;;7.88;;
12774;SDS011;6451;42.630;23.382;2023-06-24T13:11:57;9.13;;;7.93;;
12774;SDS011;6451;42.630;23.382;2023-06-24T13:14:24;8.35;;;7.60;;
12774;SDS011;6451;42.630;23.382;2023-06-24T13:16:53;8.88;;;7.97;;
12774;SDS011;6451;42.630;23.382;2023-06-24T13:19:20;8.30;;;7.55;;
12774;SDS011;6451;42.630;23.382;2023-06-24T13:21:47;8.55;;;7.68;;
12774;SDS011;6451;42.630;23.382;2023-06-24T13:24:15;8.85;;;7.57;;
12774;SDS011;6451;42.630;23.382;2023-06-24T13:26:43;7.60;;;7.00;;
12774;SDS011;6451;42.630;23.382;2023-06-24T13:29:10;7.90;;;7.10;;
12774;SDS011;6451;42.630;23.382;2023-06-24T13:31:38;8.88;;;6.82;;
12774;SDS011;6451;42.630;23.382;2023-06-24T13:34:05;9.10;;;7.50;;
12774;SDS011;6451;42.630;23.382;2023-06-24T13:36:33;7.80;;;7.05;;
12774;SDS011;6451;42.630;23.382;2023-06-24T13:39:02;8.25;;;7.28;;
12774;SDS011;6451;42.630;23.382;2023-06-24T13:41:32;8.50;;;7.25;;
12774;SDS011;6451;42.630;23.382;2023-06-24T13:43:59;9.02;;;6.78;;
12774;SDS011;6451;42.630;23.382;2023-06-24T13:46:27;15.05;;;7.53;;
12774;SDS011;6451;42.630;23.382;2023-06-24T13:48:54;18.90;;;7.18;;
12774;SDS011;6451;42.630;23.382;2023-06-24T13:51:21;19.83;;;7.22;;
12774;SDS011;6451;42.630;23.382;2023-06-24T13:53:49;16.65;;;7.22;;
12774;SDS011;6451;42.630;23.382;2023-06-24T13:56:17;12.30;;;7.10;;
12774;SDS011;6451;42.630;23.382;2023-06-24T13:58:46;9.57;;;6.78;;
12774;SDS011;6451;42.630;23.382;2023-06-24T14:01:14;11.90;;;7.40;;
12774;SDS011;6451;42.630;23.382;2023-06-24T14:03:41;11.50;;;7.00;;
12774;SDS011;6451;42.630;23.382;2023-06-24T14:06:09;12.23;;;7.03;;
12774;SDS011;6451;42.630;23.382;2023-06-24T14:08:36;12.80;;;7.13;;
12774;SDS011;6451;42.630;23.382;2023-06-24T14:11:03;17.02;;;7.68;;
12774;SDS011;6451;42.630;23.382;2023-06-24T14:13:30;13.25;;;7.53;;
12774;SDS011;6451;42.630;23.382;2023-06-24T14:15:59;13.32;;;7.35;;
12774;SDS011;6451;42.630;23.382;2023-06-24T14:18:27;14.85;;;6.50;;
12774;SDS011;6451;42.630;23.382;2023-06-24T14:20:56;8.43;;;5.90;;
12774;SDS011;6451;42.630;23.382;2023-06-24T14:23:24;10.30;;;6.10;;
12774;SDS011;6451;42.630;23.382;2023-06-24T14:25:52;8.40;;;6.10;;
12774;SDS011;6451;42.630;23.382;2023-06-24T14:28:19;11.50;;;5.93;;
12774;SDS011;6451;42.630;23.382;2023-06-24T14:30:46;10.35;;;6.05;;
12774;SDS011;6451;42.630;23.382;2023-06-24T14:33:14;11.32;;;5.68;;
12774;SDS011;6451;42.630;23.382;2023-06-24T14:35:41;9.52;;;6.32;;
12774;SDS011;6451;42.630;23.382;2023-06-24T14:38:08;12.82;;;6.18;;
12774;SDS011;6451;42.630;23.382;2023-06-24T14:40:35;13.25;;;5.97;;
12774;SDS011;6451;42.630;23.382;2023-06-24T14:43:03;8.68;;;6.15;;